Time;durP1;ratioP1;P1;durP2;ratioP2;P2;SDS_P1;SDS_P2;PMS_P1;PMS_P2;Temp;Humidity;BMP_temperature;BMP_pressure;BME280_temperature;BME280_humidity;BME280_pressure;Samples;Min_cycle;Max_cycle;Signal;HPM_P1;HPM_P2
2022/12/03 00:01:40;;;;;;;12.10;6.95;;;;;;;5.55;100.00;100211.41;5028654;28;20076;-68
2022/12/03 00:04:06;;;;;;;11.50;5.55;;;;;;;5.60;100.00;100213.97;5024166;28;20052;-68
2022/12/03 00:06:32;;;;;;;10.18;5.68;;;;;;;5.60;100.00;100227.19;5028490;28;20032;-68
2022/12/03 00:08:57;;;;;;;8.70;4.78;;;;;;;5.46;100.00;100200.91;5021915;28;20036;-68
2022/12/03 00:11:22;;;;;;;12.43;6.13;;;;;;;5.62;100.00;100225.41;5013671;28;20030;-68
2022/12/03 00:13:48;;;;;;;10.35;5.45;;;;;;;5.62;100.00;100218.34;5010849;28;20107;-68
2022/12/03 00:16:13;;;;;;;10.35;5.47;;;;;;;5.65;100.00;100217.47;5012623;28;20083;-68
2022/12/03 00:18:39;;;;;;;10.15;5.70;;;;;;;5.65;100.00;100220.94;5013101;28;20033;-68
2022/12/03 00:21:04;;;;;;;13.00;5.63;;;;;;;5.60;100.00;100213.97;5021561;28;20093;-68
2022/12/03 00:23:30;;;;;;;9.60;5.68;;;;;;;5.63;100.00;100219.22;5018830;28;20069;-68
2022/12/03 00:25:55;;;;;;;10.35;5.65;;;;;;;5.65;100.00;100218.31;5029505;28;20026;-68
2022/12/03 00:28:21;;;;;;;12.13;5.43;;;;;;;5.54;100.00;100203.47;5025639;28;20044;-68
2022/12/03 00:30:46;;;;;;;10.63;5.50;;;;;;;5.56;100.00;100214.88;5013359;28;20029;-68
2022/12/03 00:33:12;;;;;;;12.32;6.10;;;;;;;5.53;100.00;100221.09;5016108;28;20034;-68
2022/12/03 00:35:37;;;;;;;10.30;5.35;;;;;;;5.48;100.00;100217.59;5027525;28;20481;-68
2022/12/03 00:38:02;;;;;;;12.73;6.25;;;;;;;5.51;100.00;100222.84;5028281;28;20025;-68
2022/12/03 00:40:28;;;;;;;11.20;6.28;;;;;;;5.53;100.00;100217.56;5021040;28;20029;-68
2022/12/03 00:42:53;;;;;;;11.90;5.65;;;;;;;5.51;100.00;100220.22;5014163;28;20033;-68
2022/12/03 00:45:19;;;;;;;13.00;6.50;;;;;;;5.52;100.00;100221.09;5009236;28;20087;-68
2022/12/03 00:47:44;;;;;;;10.73;6.30;;;;;;;5.49;100.00;100215.81;5020500;28;20029;-68
2022/12/03 00:50:10;;;;;;;13.75;6.68;;;;;;;5.53;100.00;100220.19;5030338;28;20033;-68
2022/12/03 00:52:35;;;;;;;12.50;6.43;;;;;;;5.59;100.00;100225.41;5029856;28;20116;-68
2022/12/03 00:55:01;;;;;;;10.50;6.07;;;;;;;5.58;100.00;100226.31;5025230;28;20037;-68
2022/12/03 00:57:26;;;;;;;12.73;6.28;;;;;;;5.62;100.00;100223.63;5020781;28;20398;-68
2022/12/03 00:59:52;;;;;;;11.02;5.88;;;;;;;5.53;100.00;100209.66;5031315;28;20047;-68
2022/12/03 01:02:17;;;;;;;11.00;5.50;;;;;;;5.64;100.00;100228.88;5032066;28;20029;-68
2022/12/03 01:04:42;;;;;;;9.88;4.88;;;;;;;5.67;100.00;100226.25;5023456;28;20045;-68
2022/12/03 01:07:08;;;;;;;8.80;5.70;;;;;;;5.65;100.00;100223.59;5015414;28;20037;-68
2022/12/03 01:09:33;;;;;;;10.90;5.95;;;;;;;5.52;100.00;100202.63;5011987;28;20022;-68
2022/12/03 01:11:59;;;;;;;12.43;7.05;;;;;;;5.64;100.00;100231.50;5016304;28;20030;-68
2022/12/03 01:14:24;;;;;;;10.90;5.78;;;;;;;5.60;100.00;100216.63;5031646;28;20033;-68
2022/12/03 01:16:49;;;;;;;9.93;5.45;;;;;;;5.63;100.00;100222.75;5029490;28;20040;-68
2022/12/03 01:19:16;;;;;;;8.88;5.80;;;;;;;5.71;100.00;100227.94;5020550;28;20033;-68
2022/12/03 01:21:43;;;;;;;11.75;5.93;;;;;;;5.63;100.00;100227.13;5028417;28;20544;-68
2022/12/03 01:24:09;;;;;;;10.10;5.70;;;;;;;5.69;100.00;100229.72;5022769;28;20107;-68
2022/12/03 01:26:34;;;;;;;10.23;6.57;;;;;;;5.70;100.00;100226.19;5013971;28;20041;-68
2022/12/03 01:29:00;;;;;;;12.65;6.40;;;;;;;5.68;100.00;100223.59;5010438;28;20026;-68
2022/12/03 01:34:09;;;;;;;11.38;5.40;;;;;;;5.71;100.00;100220.03;5024954;28;20084;-68
2022/12/03 01:36:35;;;;;;;13.20;5.88;;;;;;;5.67;100.00;100216.53;5031192;28;20017;-68
2022/12/03 01:39:02;;;;;;;13.75;6.78;;;;;;;5.67;100.00;100221.81;5018887;28;20037;-68
2022/12/03 01:41:28;;;;;;;13.98;6.30;;;;;;;5.70;100.00;100228.84;5011828;28;20021;-68
2022/12/03 01:43:55;;;;;;;14.57;7.22;;;;;;;5.66;100.00;100228.00;5029905;28;20032;-68
2022/12/03 01:46:24;;;;;;;10.50;6.85;;;;;;;5.67;100.00;100231.50;5015549;28;20101;-68
2022/12/03 01:48:51;;;;;;;12.75;7.25;;;;;;;5.68;100.00;100227.97;5011519;28;20026;-68
2022/12/03 01:51:17;;;;;;;17.30;8.05;;;;;;;5.68;100.00;100228.84;5009919;28;20052;-68
2022/12/03 01:53:43;;;;;;;13.55;6.70;;;;;;;5.65;100.00;100230.66;5011460;28;20030;-68
2022/12/03 01:56:16;;;;;;;12.20;7.10;;;;;;;5.71;100.00;100227.94;5012064;28;20037;-68
2022/12/03 01:58:43;;;;;;;11.48;5.72;;;;;;;5.72;100.00;100234.94;5030533;28;20029;-68
2022/12/03 02:01:16;;;;;;;13.93;6.80;;;;;;;5.73;100.00;100228.81;5023522;28;20045;-68
2022/12/03 02:03:43;;;;;;;15.57;7.70;;;;;;;5.67;100.00;100220.97;5018109;28;20050;-68
2022/12/03 02:06:16;;;;;;;13.52;6.88;;;;;;;5.73;100.00;100231.44;5011997;28;20219;-68
2022/12/03 02:08:42;;;;;;;14.10;7.57;;;;;;;5.68;100.00;100233.25;5011511;28;20367;-68
2022/12/03 02:11:21;;;;;;;12.52;7.65;;;;;;;5.55;100.00;100210.50;5013023;28;20393;-68
2022/12/03 02:13:50;;;;;;;13.80;7.15;;;;;;;5.67;100.00;100226.25;5011176;28;20107;-68
2022/12/03 02:16:15;;;;;;;15.40;6.80;;;;;;;5.67;100.00;100231.50;5013196;28;20397;-68
2022/12/03 02:18:41;;;;;;;14.65;8.00;;;;;;;5.65;100.00;100230.66;5011114;28;20026;-68
2022/12/03 02:21:29;;;;;;;13.18;6.88;;;;;;;5.68;100.00;100227.97;5010276;28;20033;-68
2022/12/03 02:24:02;;;;;;;13.95;7.32;;;;;;;5.68;100.00;100228.84;5026529;28;20552;-68
2022/12/03 02:26:28;;;;;;;15.57;6.78;;;;;;;5.67;100.00;100226.25;5030203;28;20029;-68
2022/12/03 02:28:54;;;;;;;16.27;7.90;;;;;;;5.60;100.00;100213.97;5030942;28;20060;-68
2022/12/03 02:31:19;;;;;;;14.02;7.05;;;;;;;5.64;100.00;100220.97;5026007;28;20037;-68
2022/12/03 02:33:45;;;;;;;15.88;8.05;;;;;;;5.40;100.00;100228.22;5029778;28;20827;-68
2022/12/03 02:36:11;;;;;;;13.57;6.65;;;;;;;5.34;100.00;100233.53;5023143;28;20033;-68
2022/12/03 02:38:37;;;;;;;17.45;8.13;;;;;;;5.32;100.00;100230.03;5012237;28;20371;-68
2022/12/03 02:41:07;;;;;;;15.73;7.55;;;;;;;5.32;100.00;100223.91;5012281;28;20489;-68
2022/12/03 02:43:33;;;;;;;16.15;6.97;;;;;;;5.39;100.00;100231.75;5010718;28;20106;-68
2022/12/03 02:46:01;;;;;;;15.27;8.32;;;;;;;5.43;100.00;100223.81;5011610;28;20030;-68
2022/12/03 02:48:38;;;;;;;16.38;7.72;;;;;;;5.39;100.00;100225.59;5010958;28;20034;-67
2022/12/03 02:51:07;;;;;;;20.13;9.68;;;;;;;5.41;100.00;100215.91;5013039;28;20458;-68
2022/12/03 02:53:43;;;;;;;14.65;7.05;;;;;;;5.46;100.00;100221.13;5009569;28;20057;-67
2022/12/03 02:56:12;;;;;;;18.02;8.07;;;;;;;5.42;100.00;100219.44;5010842;28;20030;-68
2022/12/03 02:58:40;;;;;;;17.80;8.15;;;;;;;5.40;100.00;100212.38;5012148;28;20349;-68
2022/12/03 03:01:06;;;;;;;14.48;7.35;;;;;;;5.44;100.00;100222.94;5043617;28;20078;-68
2022/12/03 03:03:32;;;;;;;15.93;7.50;;;;;;;5.31;100.00;100204.56;5028467;28;20093;-67
2022/12/03 03:06:00;;;;;;;15.40;8.23;;;;;;;5.41;100.00;100213.28;5025951;28;20504;-68
2022/12/03 03:08:27;;;;;;;18.20;8.98;;;;;;;5.43;100.00;100206.22;5021103;28;20022;-67
2022/12/03 03:10:53;;;;;;;17.58;7.35;;;;;;;5.40;100.00;100207.09;5012961;28;20152;-67
2022/12/03 03:13:19;;;;;;;20.10;9.05;;;;;;;5.38;100.00;100208.91;5009261;28;20037;-67
2022/12/03 03:15:45;;;;;;;16.23;8.55;;;;;;;5.43;100.00;100206.22;5010643;28;20053;-68
2022/12/03 03:18:14;;;;;;;19.88;9.05;;;;;;;5.45;100.00;100204.47;5010803;28;20486;-68
2022/12/03 03:20:40;;;;;;;16.17;8.90;;;;;;;5.26;100.00;100192.31;5009905;28;20026;-68
2022/12/03 03:23:14;;;;;;;15.82;8.60;;;;;;;5.30;100.00;100204.59;5013099;28;20067;-67
2022/12/03 03:25:42;;;;;;;19.02;8.93;;;;;;;5.32;100.00;100208.94;5032738;28;20062;-68
2022/12/03 03:28:09;;;;;;;16.48;7.25;;;;;;;5.30;100.00;100210.72;5022444;28;20037;-68
2022/12/03 03:30:35;;;;;;;18.35;8.43;;;;;;;5.33;100.00;100199.28;5018350;28;20033;-68
2022/12/03 03:33:01;;;;;;;14.45;7.20;;;;;;;5.33;100.00;100201.91;5017271;28;20040;-68
2022/12/03 03:35:27;;;;;;;17.23;8.73;;;;;;;5.33;100.00;100191.38;5024965;28;20037;-68
2022/12/03 03:37:53;;;;;;;18.10;8.80;;;;;;;5.28;100.00;100201.09;5013994;28;20033;-68
2022/12/03 03:40:20;;;;;;;15.88;8.85;;;;;;;5.26;100.00;100187.91;5029220;28;20045;-68
2022/12/03 03:42:46;;;;;;;18.60;9.00;;;;;;;5.33;100.00;100210.72;5015605;28;20162;-68
2022/12/03 03:45:12;;;;;;;15.50;8.27;;;;;;;5.20;100.00;100197.63;5029659;28;20389;-67
2022/12/03 03:47:38;;;;;;;15.50;8.75;;;;;;;5.20;100.00;100198.53;5028020;28;20029;-68
2022/12/03 03:50:05;;;;;;;18.88;9.10;;;;;;;5.12;100.00;100192.41;5033475;28;20040;-68
2022/12/03 03:52:31;;;;;;;15.40;7.88;;;;;;;5.15;100.00;100208.22;5033168;28;20084;-68
2022/12/03 03:54:56;;;;;;;20.08;8.60;;;;;;;5.07;100.00;100191.56;5029377;28;20022;-68
2022/12/03 03:57:22;;;;;;;16.52;8.45;;;;;;;5.03;100.00;100186.34;5033239;28;20041;-68
2022/12/03 03:59:47;;;;;;;20.75;8.23;;;;;;;5.18;100.00;100186.22;5029715;28;20060;-68
2022/12/03 04:02:21;;;;;;;19.30;10.10;;;;;;;5.09;100.00;100184.53;5022647;28;20508;-68
2022/12/03 04:04:48;;;;;;;17.30;8.95;;;;;;;5.15;100.00;100195.03;5031658;28;20132;-68
2022/12/03 04:07:14;;;;;;;24.42;10.13;;;;;;;5.12;100.00;100189.78;5018219;28;20038;-68
2022/12/03 04:09:40;;;;;;;16.13;8.05;;;;;;;5.07;100.00;100193.34;5013213;28;20022;-68
2022/12/03 04:14:50;;;;;;;18.83;9.15;;;;;;;5.06;100.00;100179.28;5014666;28;20094;-68
2022/12/03 04:17:15;;;;;;;19.42;10.48;;;;;;;5.13;100.00;100196.81;5013992;28;20425;-68
2022/12/03 04:19:41;;;;;;;21.42;10.13;;;;;;;5.16;100.00;100202.06;5013150;28;20457;-68
2022/12/03 04:24:50;;;;;;;;;;;;;;;5.14;100.00;100195.06;5033329;28;20035;-68
2022/12/03 04:29:59;;;;;;;;;;;;;;;5.16;100.00;100201.16;5030207;28;20693;-68
2022/12/03 04:37:53;;;;;;;20.13;10.77;;;;;;;5.12;100.00;100176.59;5032414;28;20044;-68
2022/12/03 04:43:03;;;;;;;18.05;9.18;;;;;;;5.24;100.00;100184.41;5018799;28;20040;-68
2022/12/03 04:45:28;;;;;;;19.35;8.55;;;;;;;5.23;100.00;100180.03;5013960;28;20033;-68
2022/12/03 04:47:53;;;;;;;21.95;9.85;;;;;;;5.26;100.00;100182.63;5012378;28;20531;-68
2022/12/03 04:50:19;;;;;;;19.00;8.95;;;;;;;5.23;100.00;100182.66;5012551;28;20070;-67
2022/12/03 04:52:44;;;;;;;18.92;8.27;;;;;;;5.15;100.00;100166.03;5014645;28;20080;-67
2022/12/03 04:55:10;;;;;;;19.90;9.57;;;;;;;5.30;100.00;100180.84;5012666;28;20022;-67
2022/12/03 04:57:35;;;;;;;17.58;9.25;;;;;;;5.33;100.00;100173.78;5028091;28;20499;-68
2022/12/03 05:00:01;;;;;;;15.52;8.48;;;;;;;5.31;100.00;100170.28;5032214;28;20400;-68
2022/12/03 05:02:26;;;;;;;15.35;8.80;;;;;;;5.28;100.00;100169.44;5028342;28;20029;-68
2022/12/03 05:04:52;;;;;;;17.70;9.05;;;;;;;5.20;100.00;100156.34;5031625;28;20040;-68
2022/12/03 05:07:17;;;;;;;18.05;7.97;;;;;;;5.22;100.00;100169.50;5030456;28;20523;-68
2022/12/03 05:09:43;;;;;;;13.93;7.63;;;;;;;5.01;100.00;100145.94;5014314;28;20108;-68
2022/12/03 05:12:08;;;;;;;18.25;8.55;;;;;;;5.06;100.00;100167.84;5012181;28;20386;-67
2022/12/03 05:14:33;;;;;;;18.48;9.38;;;;;;;5.04;100.00;100174.94;5018554;28;20029;-67
2022/12/03 05:16:59;;;;;;;23.08;9.07;;;;;;;5.00;100.00;100163.53;5030473;28;20057;-68
2022/12/03 05:20:40;;;;;;;16.08;9.32;;;;;;;4.99;100.00;100161.75;5029424;28;20126;-67
2022/12/03 05:22:10;;;;;;;17.48;9.00;;;;;;;4.93;100.00;100153.03;5016666;28;20033;-67
2022/12/03 05:24:35;;;;;;;17.38;9.38;;;;;;;4.82;100.00;100162.78;5031532;28;20036;-68
2022/12/03 05:27:00;;;;;;;16.50;8.45;;;;;;;4.76;100.00;100171.59;5019904;28;20041;-68
2022/12/03 05:29:26;;;;;;;16.67;8.68;;;;;;;4.74;100.00;100162.84;5011874;28;20113;-68
2022/12/03 05:31:51;;;;;;;21.13;10.52;;;;;;;4.67;100.00;100169.03;5014338;28;20036;-68
2022/12/03 05:34:16;;;;;;;16.88;8.32;;;;;;;4.61;100.00;100166.44;5031616;28;20392;-68
2022/12/03 05:36:42;;;;;;;17.48;8.35;;;;;;;4.52;100.00;100153.34;5031419;28;20087;-67
2022/12/03 05:39:07;;;;;;;14.90;8.13;;;;;;;4.56;100.00;100160.34;5017390;28;20128;-67
2022/12/03 05:44:16;;;;;;;24.27;8.65;;;;;;;4.50;100.00;100149.81;5017879;28;20491;-68
2022/12/03 05:46:42;;;;;;;18.63;8.80;;;;;;;4.31;100.00;100132.41;5026948;28;20033;-68
2022/12/03 05:49:07;;;;;;;17.20;9.43;;;;;;;4.44;100.00;100165.69;5031298;28;20031;-68
2022/12/03 05:51:33;;;;;;;18.25;8.95;;;;;;;4.37;100.00;100153.41;5029310;28;20029;-68
2022/12/03 05:53:58;;;;;;;16.13;9.20;;;;;;;4.27;100.00;100135.06;5011866;28;20048;-68
2022/12/03 05:56:24;;;;;;;17.65;8.15;;;;;;;4.25;100.00;100145.56;5011443;28;20040;-68
2022/12/03 05:58:49;;;;;;;19.88;10.43;;;;;;;4.25;100.00;100148.22;5013519;28;20022;-68
2022/12/03 06:01:15;;;;;;;19.50;10.90;;;;;;;4.09;100.00;100130.75;5013787;28;20029;-68
2022/12/03 06:03:40;;;;;;;19.50;9.55;;;;;;;4.15;100.00;100149.16;5020008;28;20543;-68
2022/12/03 06:06:06;;;;;;;25.88;10.23;;;;;;;4.13;100.00;100140.41;5025927;28;20386;-68
2022/12/03 06:08:31;;;;;;;20.77;8.73;;;;;;;4.14;100.00;100152.66;5011030;28;20029;-68
2022/12/03 06:10:57;;;;;;;15.90;9.10;;;;;;;3.98;100.00;100135.19;5011421;28;20092;-68
2022/12/03 06:13:22;;;;;;;20.10;9.25;;;;;;;3.99;100.00;100156.25;5013198;28;20033;-68
2022/12/03 06:15:47;;;;;;;20.83;8.57;;;;;;;4.02;100.00;100163.22;5011284;28;20108;-68
2022/12/03 06:18:13;;;;;;;21.70;9.52;;;;;;;4.02;100.00;100165.88;5011158;28;20440;-68
2022/12/03 06:20:38;;;;;;;20.05;8.80;;;;;;;3.89;100.00;100151.88;5013082;28;20044;-68
2022/12/03 06:23:04;;;;;;;20.45;8.60;;;;;;;3.90;100.00;100160.66;5011356;28;20033;-68
2022/12/03 06:25:29;;;;;;;18.40;8.70;;;;;;;3.91;100.00;100154.50;5011130;28;20112;-68
2022/12/03 06:27:55;;;;;;;21.67;9.13;;;;;;;3.79;100.00;100146.66;5021677;28;20029;-68
2022/12/03 06:30:20;;;;;;;21.65;9.02;;;;;;;3.77;100.00;100144.03;5030831;28;20025;-69
2022/12/03 06:32:45;;;;;;;21.70;9.32;;;;;;;3.85;100.00;100163.31;5030617;28;20051;-68
2022/12/03 06:35:11;;;;;;;17.25;8.98;;;;;;;3.85;100.00;100163.31;5030681;28;20453;-68
2022/12/03 06:37:36;;;;;;;15.85;8.68;;;;;;;3.83;100.00;100157.19;5014659;28;20045;-68
2022/12/03 06:40:02;;;;;;;19.10;9.20;;;;;;;3.87;100.00;100165.94;5011082;28;20409;-68
2022/12/03 06:42:28;;;;;;;17.73;9.60;;;;;;;3.85;100.00;100172.97;5024587;28;20381;-68
2022/12/03 06:44:53;;;;;;;15.48;9.48;;;;;;;3.86;100.00;100177.34;5030634;28;20026;-68
2022/12/03 06:47:19;;;;;;;17.60;10.07;;;;;;;3.87;100.00;100177.31;5027490;28;20033;-68
2022/12/03 06:49:44;;;;;;;18.58;9.43;;;;;;;3.90;100.00;100176.47;5028276;28;20033;-68
2022/12/03 06:52:09;;;;;;;23.25;11.70;;;;;;;3.97;100.00;100188.69;5030454;28;20040;-68
2022/12/03 06:54:35;;;;;;;22.38;9.65;;;;;;;3.99;100.00;100192.19;5030522;28;20048;-68
2022/12/03 06:57:00;;;;;;;17.60;8.23;;;;;;;4.02;100.00;100190.44;5028815;28;20022;-68
2022/12/03 06:59:26;;;;;;;20.02;8.80;;;;;;;4.07;100.00;100196.56;5026446;28;20112;-68
2022/12/03 07:01:51;;;;;;;18.40;9.30;;;;;;;4.03;100.00;100193.94;5034021;28;20022;-68
2022/12/03 07:04:17;;;;;;;20.75;8.98;;;;;;;4.05;100.00;100189.56;5031145;28;20053;-68
2022/12/03 07:06:42;;;;;;;21.15;11.13;;;;;;;4.13;100.00;100200.06;5034203;28;20442;-68
2022/12/03 07:09:08;;;;;;;19.48;9.20;;;;;;;4.18;100.00;100207.06;5020250;28;20088;-68
2022/12/03 07:11:39;;;;;;;21.65;10.45;;;;;;;4.30;100.00;100214.03;5014291;28;20037;-68
2022/12/03 07:14:06;;;;;;;22.85;11.40;;;;;;;4.32;100.00;100205.22;5017414;28;20041;-68
2022/12/03 07:16:33;;;;;;;18.45;10.05;;;;;;;4.34;100.00;100195.56;5034226;28;20480;-68
2022/12/03 07:18:59;;;;;;;19.95;9.30;;;;;;;4.49;100.00;100205.13;5034025;28;20032;-68
2022/12/03 07:21:24;;;;;;;20.90;11.02;;;;;;;4.50;100.00;100218.31;5026301;28;20025;-69
2022/12/03 07:23:50;;;;;;;20.23;9.55;;;;;;;4.49;100.00;100199.88;5012933;28;20033;-68
2022/12/03 07:26:15;;;;;;;22.38;10.27;;;;;;;4.62;100.00;100218.25;5012939;28;20025;-68
2022/12/03 07:28:40;;;;;;;27.80;11.55;;;;;;;4.66;100.00;100219.97;5018766;28;20109;-68
2022/12/03 07:31:07;;;;;;;21.40;11.13;;;;;;;4.63;100.00;100219.13;5014108;28;20037;-68
2022/12/03 07:33:32;;;;;;;28.08;12.63;;;;;;;4.69;100.00;100219.97;5018474;28;20053;-68
2022/12/03 07:35:57;;;;;;;30.65;13.82;;;;;;;4.71;100.00;100218.19;5033679;28;20492;-68
2022/12/03 07:38:23;;;;;;;30.52;14.77;;;;;;;4.78;100.00;100219.91;5030622;28;20032;-68
2022/12/03 07:40:48;;;;;;;24.50;12.50;;;;;;;4.79;100.00;100210.25;5029667;28;20028;-68
2022/12/03 07:43:14;;;;;;;21.35;10.38;;;;;;;4.72;100.00;100225.22;5029808;28;20025;-69
2022/12/03 07:45:39;;;;;;;20.15;10.55;;;;;;;4.67;100.00;100216.47;5031965;28;20033;-68
2022/12/03 07:48:05;;;;;;;25.15;9.30;;;;;;;4.54;100.00;100177.03;5024100;28;20065;-68
2022/12/03 07:50:30;;;;;;;20.67;10.20;;;;;;;4.55;100.00;100179.66;5010082;28;20084;-68
2022/12/03 07:52:55;;;;;;;17.98;9.25;;;;;;;4.61;100.00;100191.91;5010884;28;20716;-68
2022/12/03 07:55:23;;;;;;;24.23;10.95;;;;;;;4.53;100.00;100160.34;5026435;28;20108;-68
2022/12/03 07:57:48;;;;;;;19.45;11.52;;;;;;;4.66;100.00;100182.22;5033283;28;20067;-68
2022/12/03 08:00:14;;;;;;;22.17;11.30;;;;;;;4.58;100.00;100189.31;5033311;28;20537;-68
2022/12/03 08:02:40;;;;;;;21.42;9.57;;;;;;;4.57;100.00;100182.25;5031041;28;20032;-68
2022/12/03 08:05:06;;;;;;;22.42;10.93;;;;;;;4.53;100.00;100173.50;5032463;28;20018;-68
2022/12/03 08:07:31;;;;;;;20.58;9.02;;;;;;;4.39;100.00;100134.97;5031965;28;20052;-67
2022/12/03 08:09:57;;;;;;;24.05;10.68;;;;;;;4.56;100.00;100167.34;5023374;28;20686;-68
2022/12/03 08:12:46;;;;;;;18.33;9.63;;;;;;;4.64;100.00;100173.44;5024781;28;20098;-68
2022/12/03 08:15:17;;;;;;;19.00;9.07;;;;;;;4.55;100.00;100155.94;5014939;28;20044;-68
2022/12/03 08:17:45;;;;;;;17.67;7.88;;;;;;;4.61;100.00;100181.38;5028874;28;20061;-68
2022/12/03 08:20:15;;;;;;;18.52;8.95;;;;;;;4.55;100.00;100184.91;5030015;28;20025;-68
2022/12/03 08:22:42;;;;;;;17.38;8.25;;;;;;;4.49;100.00;100170.91;5020212;28;20111;-68
2022/12/03 08:25:29;;;;;;;18.33;9.40;;;;;;;4.52;100.00;100184.06;5025505;28;20030;-68
2022/12/03 08:28:19;;;;;;;22.77;10.45;;;;;;;4.55;100.00;100179.66;5029436;28;20034;-68
2022/12/03 08:30:55;;;;;;;19.40;10.25;;;;;;;4.52;100.00;100186.69;5030790;28;20068;-68
2022/12/03 08:33:41;;;;;;;28.73;14.25;;;;;;;4.58;100.00;100182.25;5029293;28;20075;-68
2022/12/03 08:36:25;;;;;;;35.78;17.63;;;;;;;4.59;100.00;100184.03;5032137;28;20488;-68
2022/12/03 08:38:54;;;;;;;35.03;15.60;;;;;;;4.64;100.00;100190.16;5028511;28;20064;-68
2022/12/03 08:42:40;;;;;;;23.33;10.90;;;;;;;4.64;100.00;100190.16;5030540;28;20033;-68
2022/12/03 08:44:31;;;;;;;20.92;9.18;;;;;;;4.44;100.00;100184.09;5032361;28;20483;-68
2022/12/03 08:47:11;;;;;;;19.48;8.82;;;;;;;4.50;100.00;100191.97;5029209;28;20099;-68
2022/12/03 08:49:38;;;;;;;20.38;8.93;;;;;;;4.56;100.00;100180.53;5012456;28;20022;-68
2022/12/03 08:52:19;;;;;;;21.40;9.43;;;;;;;4.64;100.00;100190.16;5014762;28;20041;-68
2022/12/03 08:54:53;;;;;;;24.88;12.45;;;;;;;4.63;100.00;100195.41;5027283;28;20056;-68
2022/12/03 08:57:26;;;;;;;24.25;10.77;;;;;;;4.63;100.00;100191.00;5028958;28;20097;-68
2022/12/03 09:00:18;;;;;;;21.25;10.00;;;;;;;4.66;100.00;100190.97;5021382;28;20037;-68
2022/12/03 09:02:46;;;;;;;22.55;10.20;;;;;;;4.73;100.00;100184.78;5029784;28;20408;-68
2022/12/03 09:05:19;;;;;;;32.92;13.55;;;;;;;4.76;100.00;100200.59;5031785;28;20057;-68
2022/12/03 09:07:45;;;;;;;28.88;12.13;;;;;;;4.72;100.00;100187.44;5031929;28;20382;-68
2022/12/03 09:10:10;;;;;;;25.80;13.25;;;;;;;4.78;100.00;100185.66;5017012;28;20036;-68
2022/12/03 09:12:36;;;;;;;26.05;13.63;;;;;;;4.82;100.00;100184.75;5017348;28;20062;-68
2022/12/03 09:15:01;;;;;;;28.98;12.05;;;;;;;4.86;100.00;100186.47;5015635;28;20055;-68
2022/12/03 09:17:27;;;;;;;25.40;13.02;;;;;;;5.01;100.00;100175.81;5027141;28;20013;-68
2022/12/03 09:19:53;;;;;;;25.00;12.23;;;;;;;5.10;100.00;100178.38;5028050;28;20487;-68
2022/12/03 09:22:18;;;;;;;23.50;11.77;;;;;;;5.16;100.00;100180.97;5019817;28;20762;-68
2022/12/03 09:24:44;;;;;;;26.98;11.77;;;;;;;5.19;100.00;100169.50;5021369;28;20064;-68
2022/12/03 09:27:09;;;;;;;31.05;12.25;;;;;;;5.30;100.00;100171.16;5026474;28;20036;-68
2022/12/03 09:29:35;;;;;;;29.48;13.35;;;;;;;5.39;100.00;100173.72;5022209;28;20735;-68
2022/12/03 09:32:00;;;;;;;29.73;12.05;;;;;;;5.46;100.00;100179.81;5023818;28;20022;-68
2022/12/03 09:34:25;;;;;;;26.77;12.50;;;;;;;5.57;100.00;100177.09;5023595;28;20400;-68
2022/12/03 09:36:51;;;;;;;31.45;13.70;;;;;;;5.65;100.00;100169.97;5020094;28;20026;-68
2022/12/03 09:39:16;;;;;;;31.73;14.13;;;;;;;5.72;100.00;100155.78;5017747;28;20029;-68
2022/12/03 09:41:42;;;;;;;28.63;12.32;;;;;;;5.98;100.00;100159.91;5015234;28;20811;-68
2022/12/03 09:44:09;;;;;;;36.80;15.13;;;;;;;6.27;100.00;100152.53;5020116;28;20025;-68
2022/12/03 09:46:36;;;;;;;25.92;11.93;;;;;;;6.38;100.00;100149.72;5012117;28;20103;-68
2022/12/03 09:49:04;;;;;;;32.80;15.38;;;;;;;6.47;100.00;100152.25;5015503;28;20043;-68
2022/12/03 09:51:33;;;;;;;43.95;18.90;;;;;;;6.58;100.00;100151.19;5013417;28;20244;-68
2022/12/03 09:54:00;;;;;;;37.38;16.00;;;;;;;6.58;100.00;100147.69;5017628;28;20422;-68
2022/12/03 09:56:25;;;;;;;32.63;13.60;;;;;;;6.46;100.00;100135.50;5020166;28;20030;-68
2022/12/03 09:58:51;;;;;;;25.80;13.07;;;;;;;6.54;100.00;100140.69;5018840;28;20371;-68
2022/12/03 10:01:17;;;;;;;28.45;11.63;;;;;;;6.52;100.00;100143.34;5021705;28;20030;-68
2022/12/03 10:03:49;;;;;;;33.63;13.80;;;;;;;6.53;100.00;100133.66;5015336;28;20673;-68
2022/12/03 10:06:18;;;;;;;27.20;11.90;;;;;;;6.68;100.00;100138.72;5018236;28;20029;-68
2022/12/03 10:08:47;;;;;;;25.58;14.68;;;;;;;6.76;100.00;100142.13;5016894;28;20755;-68
2022/12/03 10:11:13;;;;;;;29.50;14.20;;;;;;;6.86;100.00;100138.44;5020232;28;20029;-68
2022/12/03 10:13:39;;;;;;;29.55;13.32;;;;;;;6.95;100.00;100135.66;5013532;28;20044;-68
2022/12/03 10:16:09;;;;;;;29.73;12.18;;;;;;;7.18;100.00;100136.13;5013367;28;20030;-68
2022/12/03 10:18:34;;;;;;;29.25;12.85;;;;;;;7.38;100.00;100135.81;5016719;28;20098;-68
2022/12/03 10:21:00;;;;;;;29.13;12.82;;;;;;;7.36;99.57;100119.06;5030318;28;20033;-69
2022/12/03 10:23:29;;;;;;;33.88;14.75;;;;;;;7.32;96.60;100130.59;5014968;28;20045;-68
2022/12/03 10:25:57;;;;;;;28.90;14.65;;;;;;;7.36;96.80;100122.59;5012115;28;20443;-68
2022/12/03 10:28:31;;;;;;;27.95;14.30;;;;;;;7.50;96.49;100123.22;5013171;28;20040;-67
2022/12/03 10:30:57;;;;;;;29.67;12.18;;;;;;;7.65;96.20;100117.63;5014530;28;20357;-67
2022/12/03 10:33:29;;;;;;;30.90;12.52;;;;;;;7.78;96.62;100100.59;5016763;28;20030;-66
2022/12/03 10:35:55;;;;;;;26.35;12.27;;;;;;;7.92;95.90;100105.63;5020440;28;20113;-67
2022/12/03 10:38:22;;;;;;;27.63;11.48;;;;;;;7.83;94.67;100096.09;5012335;28;20425;-67
2022/12/03 10:40:48;;;;;;;22.35;11.65;;;;;;;7.93;94.71;100097.66;5015167;28;20037;-67
2022/12/03 10:43:13;;;;;;;25.30;12.70;;;;;;;7.94;94.60;100094.06;5019998;28;20025;-67
2022/12/03 10:45:38;;;;;;;25.52;12.80;;;;;;;7.91;94.25;100080.03;5020842;28;20482;-67
2022/12/03 10:48:18;;;;;;;27.58;12.18;;;;;;;8.13;94.46;100083.09;5015145;28;20156;-68
2022/12/03 10:50:52;;;;;;;26.75;11.60;;;;;;;8.25;92.50;100082.88;5014684;28;20036;-68
2022/12/03 10:53:20;;;;;;;30.27;13.13;;;;;;;8.78;93.00;100067.44;5019600;28;20550;-68
2022/12/03 10:55:50;;;;;;;30.38;13.13;;;;;;;9.32;91.93;100067.84;5016367;28;20018;-68
2022/12/03 10:58:21;;;;;;;22.92;11.80;;;;;;;9.55;86.10;100065.41;5018906;28;20787;-68
2022/12/03 11:00:48;;;;;;;24.38;11.07;;;;;;;9.14;82.73;100047.94;5018556;28;20034;-68
2022/12/03 11:03:20;;;;;;;26.10;11.88;;;;;;;8.97;84.71;100054.59;5026738;28;20045;-69
2022/12/03 11:05:45;;;;;;;25.65;10.88;;;;;;;8.87;85.55;100069.00;5021720;28;20036;-68
2022/12/03 11:08:25;;;;;;;18.75;10.30;;;;;;;8.73;86.00;100055.22;5020319;28;20399;-68
2022/12/03 11:11:06;;;;;;;24.08;11.68;;;;;;;8.73;87.37;100060.53;5018196;28;20045;-68
2022/12/03 11:13:31;;;;;;;23.88;11.15;;;;;;;8.88;88.11;100053.03;5016597;28;20641;-68
2022/12/03 11:15:57;;;;;;;28.52;11.70;;;;;;;8.73;87.15;100029.56;5013927;28;20032;-68
2022/12/03 11:18:35;;;;;;;24.27;11.93;;;;;;;8.79;86.60;100044.47;5017722;28;20076;-68
2022/12/03 11:21:10;;;;;;;27.50;10.50;;;;;;;8.73;86.94;100044.63;5019565;28;20032;-68
2022/12/03 11:23:44;;;;;;;29.23;13.40;;;;;;;8.64;86.23;100042.19;5018999;28;20025;-68
2022/12/03 11:26:28;;;;;;;23.58;10.23;;;;;;;8.43;87.15;100050.66;5014500;28;20599;-68
2022/12/03 11:28:58;;;;;;;25.95;13.10;;;;;;;8.30;86.79;100038.59;5014664;28;20030;-69
2022/12/03 11:31:35;;;;;;;21.67;10.57;;;;;;;8.34;87.41;100037.59;5014403;28;20037;-68
2022/12/03 11:34:15;;;;;;;22.00;10.88;;;;;;;8.31;87.63;100038.56;5024718;28;20100;-68
2022/12/03 11:37:09;;;;;;;26.75;11.68;;;;;;;8.28;88.35;100035.97;5026529;28;20469;-68
2022/12/03 11:39:49;;;;;;;19.90;10.18;;;;;;;8.23;88.11;100015.75;5016399;28;20069;-68
2022/12/03 11:42:26;;;;;;;25.00;12.55;;;;;;;8.31;88.66;100024.41;5017406;28;20022;-68